createdAt,value
2023-03-04T00:02:25.740Z,0.93
2023-03-04T00:04:52.369Z,0.92
2023-03-04T00:07:19.028Z,0.91
2023-03-04T00:09:46.477Z,0.87
2023-03-04T00:12:13.474Z,0.82
2023-03-04T00:14:40.134Z,0.76
2023-03-04T00:17:07.091Z,0.74
2023-03-04T00:19:35.504Z,0.71
2023-03-04T00:22:03.249Z,0.66
2023-03-04T00:24:30.035Z,0.61
2023-03-04T00:26:56.731Z,0.57
2023-03-04T00:29:23.349Z,0.55
2023-03-04T00:31:50.067Z,0.52
2023-03-04T00:34:16.648Z,0.52
2023-03-04T00:36:44.720Z,0.50
2023-03-04T00:39:12.160Z,0.49
2023-03-04T00:41:38.751Z,0.50
2023-03-04T00:44:05.493Z,0.49
2023-03-04T00:46:32.572Z,0.49
2023-03-04T00:48:59.265Z,0.50
2023-03-04T00:51:25.965Z,0.51
2023-03-04T00:53:54.733Z,0.53
2023-03-04T00:56:21.424Z,0.52
2023-03-04T00:58:47.976Z,0.53
2023-03-04T01:01:14.829Z,0.55
2023-03-04T01:03:42.415Z,0.52
2023-03-04T01:06:09.093Z,0.47
2023-03-04T01:08:35.723Z,0.40
2023-03-04T01:11:03.712Z,0.35
2023-03-04T01:13:30.247Z,0.32
2023-03-04T01:15:57.864Z,0.29
2023-03-04T01:18:25.737Z,0.26
2023-03-04T01:20:52.484Z,0.26
2023-03-04T01:23:19.058Z,0.28
2023-03-04T01:25:45.659Z,0.27
2023-03-04T01:28:14.148Z,0.23
2023-03-04T01:30:41.154Z,0.19
2023-03-04T01:33:07.717Z,0.15
2023-03-04T01:35:34.381Z,0.08
2023-03-04T01:38:01.102Z,0.02
2023-03-04T01:40:27.792Z,-0.04
2023-03-04T01:42:54.644Z,-0.08
2023-03-04T01:45:22.829Z,-0.08
2023-03-04T01:47:50.080Z,-0.07
2023-03-04T01:50:19.399Z,-0.07
2023-03-04T01:52:46.208Z,-0.04
2023-03-04T01:55:15.723Z,-0.01
2023-03-04T01:57:42.303Z,0.01
2023-03-04T02:00:17.854Z,0.01
2023-03-04T02:02:46.979Z,-0.01
2023-03-04T02:05:13.832Z,-0.02
2023-03-04T02:07:40.610Z,-0.02
2023-03-04T02:10:08.152Z,-0.04
2023-03-04T02:12:34.682Z,-0.05
2023-03-04T02:15:01.242Z,-0.06
2023-03-04T02:17:28.442Z,-0.07
2023-03-04T02:20:00.215Z,-0.10
2023-03-04T02:22:27.075Z,-0.14
2023-03-04T02:24:57.130Z,-0.20
2023-03-04T02:27:26.746Z,-0.28
2023-03-04T02:29:53.270Z,-0.30
2023-03-04T02:32:19.888Z,-0.34
2023-03-04T02:34:47.510Z,-0.35
2023-03-04T02:37:14.101Z,-0.36
2023-03-04T02:39:42.818Z,-0.38
2023-03-04T02:42:11.463Z,-0.45
2023-03-04T02:44:41.644Z,-0.48
2023-03-04T02:47:10.409Z,-0.51
2023-03-04T02:49:38.138Z,-0.53
2023-03-04T02:52:05.732Z,-0.56
2023-03-04T02:54:32.506Z,-0.54
2023-03-04T02:57:01.423Z,-0.54
2023-03-04T02:59:28.779Z,-0.54
2023-03-04T03:01:58.133Z,-0.58
2023-03-04T03:04:25.718Z,-0.58
2023-03-04T03:06:54.132Z,-0.59
2023-03-04T03:09:21.383Z,-0.60
2023-03-04T03:11:47.873Z,-0.60
2023-03-04T03:14:14.857Z,-0.60
2023-03-04T03:16:41.439Z,-0.61
2023-03-04T03:19:09.285Z,-0.62
2023-03-04T03:21:36.625Z,-0.65
2023-03-04T03:24:03.315Z,-0.68
2023-03-04T03:26:29.843Z,-0.70
2023-03-04T03:28:56.366Z,-0.71
2023-03-04T03:31:23.000Z,-0.67
2023-03-04T03:33:49.578Z,-0.61
2023-03-04T03:36:17.695Z,-0.62
2023-03-04T03:38:44.271Z,-0.65
2023-03-04T03:41:10.829Z,-0.71
2023-03-04T03:43:37.421Z,-0.76
2023-03-04T03:46:04.084Z,-0.76
2023-03-04T03:48:30.647Z,-0.77
2023-03-04T03:50:57.165Z,-0.81
2023-03-04T03:53:25.171Z,-0.89
2023-03-04T03:55:51.885Z,-0.95
2023-03-04T03:58:18.459Z,-0.99
2023-03-04T04:00:44.981Z,-1.05
2023-03-04T04:03:14.103Z,-1.09
2023-03-04T04:05:40.674Z,-1.13
2023-03-04T04:08:07.212Z,-1.15
2023-03-04T04:10:35.404Z,-1.20
2023-03-04T04:13:01.873Z,-1.22
2023-03-04T04:15:28.399Z,-1.23
2023-03-04T04:17:56.060Z,-1.24
2023-03-04T04:20:25.651Z,-1.24
2023-03-04T04:22:52.606Z,-1.25
2023-03-04T04:25:19.071Z,-1.23
2023-03-04T04:27:46.957Z,-1.23
2023-03-04T04:30:13.820Z,-1.23
2023-03-04T04:32:40.347Z,-1.22
2023-03-04T04:35:07.477Z,-1.22
2023-03-04T04:37:33.993Z,-1.24
2023-03-04T04:40:00.627Z,-1.27
2023-03-04T04:42:27.200Z,-1.31
2023-03-04T04:44:57.666Z,-1.31
2023-03-04T04:47:24.229Z,-1.30
2023-03-04T04:49:50.778Z,-1.29
2023-03-04T04:52:17.221Z,-1.25
2023-03-04T04:54:43.791Z,-1.24
2023-03-04T04:57:10.383Z,-1.24
2023-03-04T04:59:37.208Z,-1.23
2023-03-04T05:02:05.359Z,-1.20
2023-03-04T05:04:32.095Z,-1.18
2023-03-04T05:06:58.544Z,-1.15
2023-03-04T05:09:25.072Z,-1.08
2023-03-04T05:11:51.598Z,-1.07
2023-03-04T05:14:18.179Z,-1.08
2023-03-04T05:16:44.696Z,-1.14
2023-03-04T05:19:12.628Z,-1.22
2023-03-04T05:21:39.240Z,-1.27
2023-03-04T05:24:06.145Z,-1.33
2023-03-04T05:26:33.042Z,-1.36
2023-03-04T05:28:59.533Z,-1.39
2023-03-04T05:31:26.051Z,-1.43
2023-03-04T05:33:52.654Z,-1.47
2023-03-04T05:36:21.150Z,-1.55
2023-03-04T05:38:47.742Z,-1.58
2023-03-04T05:41:14.357Z,-1.65
2023-03-04T05:43:42.870Z,-1.66
2023-03-04T05:46:12.321Z,-1.68
2023-03-04T05:48:38.773Z,-1.67
2023-03-04T05:51:05.492Z,-1.67
2023-03-04T05:53:33.413Z,-1.70
2023-03-04T05:56:00.005Z,-1.74
2023-03-04T05:58:26.625Z,-1.75
2023-03-04T06:00:53.205Z,-1.74
2023-03-04T06:03:21.469Z,-1.75
2023-03-04T06:05:48.107Z,-1.73
2023-03-04T06:08:14.572Z,-1.71
2023-03-04T06:10:42.685Z,-1.72
2023-03-04T06:13:09.335Z,-1.69
2023-03-04T06:15:35.924Z,-1.68
2023-03-04T06:18:02.432Z,-1.69
2023-03-04T06:20:28.989Z,-1.71
2023-03-04T06:22:55.503Z,-1.69
2023-03-04T06:25:22.173Z,-1.65
2023-03-04T06:27:50.893Z,-1.64
2023-03-04T06:30:17.784Z,-1.61
2023-03-04T06:32:44.512Z,-1.58
2023-03-04T06:35:11.299Z,-1.52
2023-03-04T06:37:38.131Z,-1.45
2023-03-04T06:40:05.017Z,-1.42
2023-03-04T06:42:31.524Z,-1.44
2023-03-04T06:45:00.024Z,-1.51
2023-03-04T06:47:26.644Z,-1.50
2023-03-04T06:49:53.139Z,-1.46
2023-03-04T06:52:19.620Z,-1.42
2023-03-04T06:54:46.130Z,-1.41
2023-03-04T06:57:13.582Z,-1.39
2023-03-04T06:59:40.402Z,-1.36
2023-03-04T07:02:11.428Z,-1.32
2023-03-04T07:04:38.148Z,-1.25
2023-03-04T07:07:04.803Z,-1.17
2023-03-04T07:09:31.277Z,-1.06
2023-03-04T07:11:57.750Z,-0.97
2023-03-04T07:14:24.441Z,-0.88
2023-03-04T07:16:50.937Z,-0.80
2023-03-04T07:19:18.826Z,-0.71
2023-03-04T07:21:45.454Z,-0.57
2023-03-04T07:24:11.933Z,-0.43
2023-03-04T07:26:39.037Z,-0.26
2023-03-04T07:29:05.780Z,-0.07
2023-03-04T07:31:33.149Z,0.14
2023-03-04T07:34:01.024Z,0.37
2023-03-04T07:36:28.992Z,0.57
2023-03-04T07:38:55.590Z,0.73
2023-03-04T07:41:23.000Z,0.89
2023-03-04T07:43:49.470Z,1.04
2023-03-04T07:46:16.335Z,1.16
2023-03-04T07:48:42.828Z,1.33
2023-03-04T07:51:10.119Z,1.52
2023-03-04T07:53:39.592Z,1.75
2023-03-04T07:56:06.828Z,1.96
2023-03-04T07:58:33.547Z,2.15
2023-03-04T08:01:00.103Z,2.32
2023-03-04T08:03:28.674Z,2.50
2023-03-04T08:05:55.186Z,2.67
2023-03-04T08:08:21.792Z,2.83
2023-03-04T08:10:49.947Z,2.94
2023-03-04T08:13:16.398Z,3.08
2023-03-04T08:15:43.381Z,3.15
2023-03-04T08:18:10.047Z,3.23
2023-03-04T08:20:36.590Z,3.35
2023-03-04T08:23:03.381Z,3.48
2023-03-04T08:25:29.943Z,3.55
2023-03-04T08:27:58.595Z,3.63
2023-03-04T08:30:25.229Z,3.75
2023-03-04T08:32:51.812Z,3.90
2023-03-04T08:35:18.562Z,4.09
2023-03-04T08:37:46.005Z,4.26
2023-03-04T08:40:13.304Z,4.46
2023-03-04T08:42:39.827Z,4.66
2023-03-04T08:45:08.402Z,4.86
2023-03-04T08:47:35.022Z,5.03
2023-03-04T08:50:01.595Z,5.16
2023-03-04T08:52:29.565Z,5.30
2023-03-04T08:54:56.248Z,5.49
2023-03-04T08:57:22.806Z,5.67
2023-03-04T08:59:49.319Z,5.85
2023-03-04T09:02:17.576Z,6.05
2023-03-04T09:04:44.277Z,6.26
2023-03-04T09:41:43.449Z,8.24
2023-03-04T09:56:00.918Z,8.79
2023-03-04T09:58:37.713Z,8.81
2023-03-04T10:03:52.871Z,9.14
2023-03-04T10:26:29.936Z,10.41
2023-03-04T10:28:56.721Z,10.53
2023-03-04T10:31:30.790Z,10.66
2023-03-04T10:33:58.116Z,10.80
2023-03-04T10:36:35.551Z,10.91
2023-03-04T10:39:03.659Z,10.99
2023-03-04T10:41:32.072Z,11.05
2023-03-04T10:44:01.872Z,11.10
2023-03-04T10:46:28.523Z,11.25
2023-03-04T10:48:55.347Z,11.37
2023-03-04T10:51:22.904Z,11.43
2023-03-04T10:53:51.894Z,11.44
2023-03-04T10:56:34.240Z,11.40
2023-03-04T10:59:15.664Z,11.15
2023-03-04T11:01:42.157Z,11.11
2023-03-04T11:04:17.145Z,11.13
2023-03-04T11:06:44.082Z,11.30
2023-03-04T11:09:21.437Z,11.51
2023-03-04T11:11:49.821Z,11.57
2023-03-04T11:14:20.760Z,11.60
2023-03-04T11:16:53.140Z,11.45
2023-03-04T11:19:21.187Z,11.31
2023-03-04T11:21:49.128Z,11.23
2023-03-04T11:24:28.865Z,11.24
2023-03-04T11:27:01.771Z,11.21
2023-03-04T11:29:33.396Z,11.08
2023-03-04T11:32:03.817Z,10.97
2023-03-04T11:34:34.305Z,11.03
2023-03-04T11:37:04.578Z,11.15
2023-03-04T11:39:36.337Z,11.35
2023-03-04T11:42:11.390Z,11.08
2023-03-04T11:44:38.442Z,10.78
2023-03-04T11:47:19.971Z,10.69
2023-03-04T11:50:08.451Z,10.27
2023-03-04T11:52:51.715Z,9.92
2023-03-04T11:55:37.894Z,9.63
2023-03-04T11:58:48.755Z,9.54
2023-03-04T12:01:23.566Z,9.53
2023-03-04T12:04:13.221Z,9.62
2023-03-04T12:06:52.911Z,9.59
2023-03-04T12:09:39.887Z,9.48
2023-03-04T12:12:30.746Z,9.30
2023-03-04T12:15:17.490Z,9.05
2023-03-04T12:18:07.741Z,8.88
2023-03-04T12:20:46.519Z,8.69
2023-03-04T12:23:30.967Z,8.63
2023-03-04T12:26:06.074Z,8.52
2023-03-04T19:45:57.822Z,3.43
2023-03-04T19:57:08.679Z,3.45
2023-03-04T20:10:54.296Z,3.43
2023-03-04T20:24:31.061Z,3.21
2023-03-04T20:29:39.528Z,3.29
2023-03-04T20:32:07.408Z,3.33
2023-03-04T20:49:17.857Z,3.40
2023-03-04T20:57:44.806Z,3.43
2023-03-04T21:00:14.230Z,3.40
2023-03-04T21:05:24.064Z,3.28
2023-03-04T21:07:54.436Z,3.26
2023-03-04T21:10:21.544Z,3.28
2023-03-04T21:12:54.476Z,3.33
2023-03-04T21:18:12.495Z,3.37
2023-03-04T21:20:39.613Z,3.41
2023-03-04T21:23:08.863Z,3.43
2023-03-04T21:25:37.479Z,3.45
2023-03-04T21:36:30.892Z,3.40
2023-03-04T21:39:02.981Z,3.36
2023-03-04T21:44:27.934Z,3.30
2023-03-04T21:47:07.316Z,3.21
2023-03-04T21:49:35.330Z,3.12
2023-03-04T21:52:04.649Z,3.10
2023-03-04T21:54:37.125Z,3.11
2023-03-04T21:59:48.166Z,3.13
2023-03-04T22:02:24.668Z,3.12
2023-03-04T22:04:54.600Z,3.11
2023-03-04T22:10:08.597Z,3.14
2023-03-04T22:12:35.895Z,3.16
2023-03-04T22:18:08.277Z,3.05
2023-03-04T22:20:40.848Z,3.02
2023-03-04T22:25:48.794Z,2.91
2023-03-04T22:33:55.444Z,2.94
2023-03-04T22:36:24.002Z,2.93
2023-03-04T22:38:52.814Z,2.86
2023-03-04T22:41:24.691Z,2.84
2023-03-04T22:43:52.611Z,2.81
2023-03-04T22:46:33.334Z,2.77
2023-03-04T22:49:09.449Z,2.73
2023-03-04T22:51:38.053Z,2.71
2023-03-04T22:54:05.508Z,2.68
2023-03-04T22:56:32.285Z,2.68
2023-03-04T22:58:59.680Z,2.73
2023-03-04T23:01:29.065Z,2.75
2023-03-04T23:03:56.882Z,2.74
2023-03-04T23:06:26.360Z,2.78
2023-03-04T23:08:53.533Z,2.77
2023-03-04T23:11:24.558Z,2.80
2023-03-04T23:13:51.632Z,2.82
2023-03-04T23:16:20.203Z,2.86
2023-03-04T23:18:59.794Z,2.86
2023-03-04T23:21:29.521Z,2.85
2023-03-04T23:23:56.609Z,2.88
2023-03-04T23:26:29.544Z,2.89
2023-03-04T23:28:59.444Z,2.89
2023-03-04T23:31:26.622Z,2.94
2023-03-04T23:34:26.796Z,2.98
2023-03-04T23:36:58.119Z,2.95
2023-03-04T23:39:26.825Z,2.92
2023-03-04T23:41:57.528Z,2.87
2023-03-04T23:44:26.099Z,2.84
2023-03-04T23:46:54.611Z,2.80
2023-03-04T23:49:21.666Z,2.69
2023-03-04T23:51:50.511Z,2.55
2023-03-04T23:54:18.610Z,2.46
2023-03-04T23:56:46.363Z,2.32
2023-03-04T23:59:13.554Z,2.22
